Strona główna
Zdjęcia satelitarne 15-dni prognozyKlimatMeteorologia morska Cyklony Błyskawica LotniskoFAQ Gazetka O
Pogoda : Europa Afryka Ameryka Północna Ameryka Południowa Azja Australia-Oceania Inny
Języki Kontakt

Katowice, Polska

Pyrzowice

Szerokość geograficzna: 50-28-27N, Długość geograficzna: 019-04-48E, wysokość: 284 m


METAR: EPKT 242330Z 06009KT CAVOK 12/07 Q1017
short-TAF: EPKT 242030Z 2421/2506 06010KT CAVOK
long-TAF: przestarzały (15963 godziny)

czas: 01:50 (23:50 UTC)

Aktualna obserwacja pogody

Raport powstał 20 minut temu, godzina 23:30 UTC  
Wiatr 09 kt od wschodnio-północny wschód
Temperatura 12°C
Wilgotność 71%
Ciśnienie 1017 hPa
Widzialność 10 km lub więcej
Brak chmur poniżej 1500 m i brak chmur cumulonimbus

Jednostka miary

Prognoza

Raport powstał 3 godziny i 17 minut temu, godzina 20:33 UTC  
Prognoza ważna od 24 godzina 21 UTC do 25 godzina 06 UTC
Wiatr 10 kt od wschodnio-północny wschód
Widzialność 10 km lub więcej
Brak chmur poniżej 1500 m i brak chmur cumulonimbus
Informacje na tej stronie internetowej podlegają klauzuli o wyłączeniu odpowiedzialności
Pogoda : Europa Afryka Ameryka Północna Ameryka Południowa Azja Australia-Oceania Inny
Zdjęcia satelitarne 15-dni prognozyKlimatMeteorologia morska Cyklony Błyskawica LotniskoFAQ Języki Kontakt Gazetka O